sensor_id;sensor_type;location;lat;lon;timestamp;P1;durP1;ratioP1;P2;durP2;ratioP2
23714;SDS011;12036;50.858;4.472;2022-08-06T00:02:20;5.97;;;1.30;;
23714;SDS011;12036;50.858;4.472;2022-08-06T00:04:49;2.80;;;1.27;;
23714;SDS011;12036;50.858;4.472;2022-08-06T00:07:15;3.17;;;1.40;;
23714;SDS011;12036;50.858;4.472;2022-08-06T00:09:41;2.63;;;1.20;;
23714;SDS011;12036;50.858;4.472;2022-08-06T00:12:07;3.97;;;1.50;;
23714;SDS011;12036;50.858;4.472;2022-08-06T00:14:33;3.83;;;1.30;;
23714;SDS011;12036;50.858;4.472;2022-08-06T00:16:59;3.13;;;1.30;;
23714;SDS011;12036;50.858;4.472;2022-08-06T00:19:24;3.42;;;1.02;;
23714;SDS011;12036;50.858;4.472;2022-08-06T00:21:51;2.75;;;0.88;;
23714;SDS011;12036;50.858;4.472;2022-08-06T00:24:18;12.48;;;2.05;;
23714;SDS011;12036;50.858;4.472;2022-08-06T00:26:44;2.88;;;1.20;;
23714;SDS011;12036;50.858;4.472;2022-08-06T00:29:10;4.47;;;1.40;;
23714;SDS011;12036;50.858;4.472;2022-08-06T00:31:35;4.10;;;1.25;;
23714;SDS011;12036;50.858;4.472;2022-08-06T00:34:01;4.65;;;1.40;;
23714;SDS011;12036;50.858;4.472;2022-08-06T00:36:29;3.70;;;1.30;;
23714;SDS011;12036;50.858;4.472;2022-08-06T00:39:00;5.68;;;1.20;;
23714;SDS011;12036;50.858;4.472;2022-08-06T00:41:28;3.90;;;1.13;;
23714;SDS011;12036;50.858;4.472;2022-08-06T00:43:55;3.30;;;1.00;;
23714;SDS011;12036;50.858;4.472;2022-08-06T00:46:22;3.20;;;1.13;;
23714;SDS011;12036;50.858;4.472;2022-08-06T00:48:48;4.13;;;1.20;;
23714;SDS011;12036;50.858;4.472;2022-08-06T00:51:14;3.90;;;1.00;;
23714;SDS011;12036;50.858;4.472;2022-08-06T00:53:39;3.50;;;1.00;;
23714;SDS011;12036;50.858;4.472;2022-08-06T00:56:05;6.70;;;1.60;;
23714;SDS011;12036;50.858;4.472;2022-08-06T00:58:31;3.90;;;1.10;;
23714;SDS011;12036;50.858;4.472;2022-08-06T01:00:57;8.55;;;1.13;;
23714;SDS011;12036;50.858;4.472;2022-08-06T01:03:23;2.58;;;0.93;;
23714;SDS011;12036;50.858;4.472;2022-08-06T01:05:49;2.22;;;1.10;;
23714;SDS011;12036;50.858;4.472;2022-08-06T01:08:14;2.17;;;1.10;;
23714;SDS011;12036;50.858;4.472;2022-08-06T01:10:40;3.72;;;1.10;;
23714;SDS011;12036;50.858;4.472;2022-08-06T01:13:05;3.22;;;1.27;;
23714;SDS011;12036;50.858;4.472;2022-08-06T01:15:32;3.20;;;1.38;;
23714;SDS011;12036;50.858;4.472;2022-08-06T01:18:09;3.35;;;1.20;;
23714;SDS011;12036;50.858;4.472;2022-08-06T01:31:09;1.65;;;1.10;;
23714;SDS011;12036;50.858;4.472;2022-08-06T01:33:47;2.72;;;1.05;;
23714;SDS011;12036;50.858;4.472;2022-08-06T01:36:19;4.13;;;1.42;;
23714;SDS011;12036;50.858;4.472;2022-08-06T01:38:49;4.00;;;1.10;;
23714;SDS011;12036;50.858;4.472;2022-08-06T01:41:21;3.05;;;1.30;;
23714;SDS011;12036;50.858;4.472;2022-08-06T01:44:04;4.25;;;1.50;;
23714;SDS011;12036;50.858;4.472;2022-08-06T01:46:33;4.28;;;1.10;;
23714;SDS011;12036;50.858;4.472;2022-08-06T01:49:02;4.07;;;0.93;;
23714;SDS011;12036;50.858;4.472;2022-08-06T01:51:29;2.88;;;1.10;;
23714;SDS011;12036;50.858;4.472;2022-08-06T01:53:57;9.32;;;2.53;;
23714;SDS011;12036;50.858;4.472;2022-08-06T01:56:25;4.20;;;1.30;;
23714;SDS011;12036;50.858;4.472;2022-08-06T01:58:52;2.42;;;1.13;;
23714;SDS011;12036;50.858;4.472;2022-08-06T02:01:20;4.95;;;1.45;;
23714;SDS011;12036;50.858;4.472;2022-08-06T02:03:53;5.28;;;1.30;;
23714;SDS011;12036;50.858;4.472;2022-08-06T02:06:28;4.07;;;1.00;;
23714;SDS011;12036;50.858;4.472;2022-08-06T02:09:02;3.92;;;1.20;;
23714;SDS011;12036;50.858;4.472;2022-08-06T02:11:31;4.70;;;1.10;;
23714;SDS011;12036;50.858;4.472;2022-08-06T02:14:00;4.95;;;1.10;;
23714;SDS011;12036;50.858;4.472;2022-08-06T02:16:30;4.35;;;1.05;;
23714;SDS011;12036;50.858;4.472;2022-08-06T02:19:00;2.63;;;1.30;;
23714;SDS011;12036;50.858;4.472;2022-08-06T02:21:28;2.65;;;1.25;;
23714;SDS011;12036;50.858;4.472;2022-08-06T02:23:57;5.25;;;1.65;;
23714;SDS011;12036;50.858;4.472;2022-08-06T02:26:24;1.77;;;0.98;;
23714;SDS011;12036;50.858;4.472;2022-08-06T02:28:52;4.50;;;1.20;;
23714;SDS011;12036;50.858;4.472;2022-08-06T02:31:20;3.70;;;1.20;;
23714;SDS011;12036;50.858;4.472;2022-08-06T02:33:46;2.65;;;1.40;;
23714;SDS011;12036;50.858;4.472;2022-08-06T02:36:16;3.53;;;1.40;;
23714;SDS011;12036;50.858;4.472;2022-08-06T02:38:47;5.95;;;1.35;;
23714;SDS011;12036;50.858;4.472;2022-08-06T02:41:18;4.32;;;1.30;;
23714;SDS011;12036;50.858;4.472;2022-08-06T02:43:51;1.52;;;1.08;;
23714;SDS011;12036;50.858;4.472;2022-08-06T02:46:29;1.92;;;1.20;;
23714;SDS011;12036;50.858;4.472;2022-08-06T02:49:04;1.58;;;1.30;;
23714;SDS011;12036;50.858;4.472;2022-08-06T02:51:38;2.25;;;1.17;;
23714;SDS011;12036;50.858;4.472;2022-08-06T02:54:10;6.63;;;1.25;;
23714;SDS011;12036;50.858;4.472;2022-08-06T02:56:42;3.38;;;1.23;;
23714;SDS011;12036;50.858;4.472;2022-08-06T02:59:13;4.47;;;1.20;;
23714;SDS011;12036;50.858;4.472;2022-08-06T03:01:45;3.03;;;1.40;;
23714;SDS011;12036;50.858;4.472;2022-08-06T03:04:15;2.65;;;1.40;;
23714;SDS011;12036;50.858;4.472;2022-08-06T03:06:45;3.85;;;1.40;;
23714;SDS011;12036;50.858;4.472;2022-08-06T03:09:12;7.22;;;1.42;;
23714;SDS011;12036;50.858;4.472;2022-08-06T03:11:42;2.80;;;1.23;;
23714;SDS011;12036;50.858;4.472;2022-08-06T03:14:11;5.90;;;1.10;;
23714;SDS011;12036;50.858;4.472;2022-08-06T03:16:39;3.08;;;1.33;;
23714;SDS011;12036;50.858;4.472;2022-08-06T03:19:06;4.38;;;1.67;;
23714;SDS011;12036;50.858;4.472;2022-08-06T03:21:33;3.65;;;1.40;;
23714;SDS011;12036;50.858;4.472;2022-08-06T03:24:00;3.50;;;1.20;;
23714;SDS011;12036;50.858;4.472;2022-08-06T03:26:28;3.72;;;1.40;;
23714;SDS011;12036;50.858;4.472;2022-08-06T03:28:55;4.85;;;1.60;;
23714;SDS011;12036;50.858;4.472;2022-08-06T03:31:23;3.25;;;1.30;;
23714;SDS011;12036;50.858;4.472;2022-08-06T03:33:50;4.80;;;1.13;;
23714;SDS011;12036;50.858;4.472;2022-08-06T03:36:17;4.00;;;1.27;;
23714;SDS011;12036;50.858;4.472;2022-08-06T03:38:45;3.03;;;1.30;;
23714;SDS011;12036;50.858;4.472;2022-08-06T03:41:15;2.88;;;1.30;;
23714;SDS011;12036;50.858;4.472;2022-08-06T03:43:42;2.08;;;1.20;;
23714;SDS011;12036;50.858;4.472;2022-08-06T03:46:08;2.75;;;1.17;;
23714;SDS011;12036;50.858;4.472;2022-08-06T03:48:37;3.30;;;1.15;;
23714;SDS011;12036;50.858;4.472;2022-08-06T03:51:15;4.82;;;1.60;;
23714;SDS011;12036;50.858;4.472;2022-08-06T03:53:45;2.42;;;1.60;;
23714;SDS011;12036;50.858;4.472;2022-08-06T03:56:14;3.60;;;1.23;;
23714;SDS011;12036;50.858;4.472;2022-08-06T03:58:43;4.63;;;1.33;;
23714;SDS011;12036;50.858;4.472;2022-08-06T04:01:11;3.45;;;1.10;;
23714;SDS011;12036;50.858;4.472;2022-08-06T04:03:39;2.35;;;1.25;;
23714;SDS011;12036;50.858;4.472;2022-08-06T04:06:07;3.47;;;1.20;;
23714;SDS011;12036;50.858;4.472;2022-08-06T04:08:37;1.67;;;1.27;;
23714;SDS011;12036;50.858;4.472;2022-08-06T04:11:04;6.22;;;1.63;;
23714;SDS011;12036;50.858;4.472;2022-08-06T04:13:31;3.50;;;1.20;;
23714;SDS011;12036;50.858;4.472;2022-08-06T04:15:57;3.72;;;1.63;;
23714;SDS011;12036;50.858;4.472;2022-08-06T04:18:26;4.15;;;1.42;;
23714;SDS011;12036;50.858;4.472;2022-08-06T04:20:55;2.72;;;1.20;;
23714;SDS011;12036;50.858;4.472;2022-08-06T04:23:23;4.70;;;1.27;;
23714;SDS011;12036;50.858;4.472;2022-08-06T04:25:56;4.15;;;1.30;;
23714;SDS011;12036;50.858;4.472;2022-08-06T04:28:25;2.08;;;1.20;;
23714;SDS011;12036;50.858;4.472;2022-08-06T04:30:53;2.88;;;1.20;;
23714;SDS011;12036;50.858;4.472;2022-08-06T04:33:21;2.25;;;0.98;;
23714;SDS011;12036;50.858;4.472;2022-08-06T04:35:49;6.35;;;1.80;;
23714;SDS011;12036;50.858;4.472;2022-08-06T04:38:17;4.07;;;1.50;;
23714;SDS011;12036;50.858;4.472;2022-08-06T04:40:45;3.05;;;1.30;;
23714;SDS011;12036;50.858;4.472;2022-08-06T04:43:11;3.13;;;1.38;;
23714;SDS011;12036;50.858;4.472;2022-08-06T04:45:37;3.38;;;1.20;;
23714;SDS011;12036;50.858;4.472;2022-08-06T04:48:05;5.47;;;1.58;;
23714;SDS011;12036;50.858;4.472;2022-08-06T04:50:35;3.53;;;1.40;;
23714;SDS011;12036;50.858;4.472;2022-08-06T04:53:08;3.63;;;1.20;;
23714;SDS011;12036;50.858;4.472;2022-08-06T04:55:36;3.40;;;1.10;;
23714;SDS011;12036;50.858;4.472;2022-08-06T04:58:02;3.60;;;1.58;;
23714;SDS011;12036;50.858;4.472;2022-08-06T05:00:32;4.03;;;1.60;;
23714;SDS011;12036;50.858;4.472;2022-08-06T05:02:59;2.25;;;1.50;;
23714;SDS011;12036;50.858;4.472;2022-08-06T05:05:25;2.13;;;1.42;;
23714;SDS011;12036;50.858;4.472;2022-08-06T05:07:52;5.07;;;1.23;;
23714;SDS011;12036;50.858;4.472;2022-08-06T05:10:22;3.67;;;1.30;;
23714;SDS011;12036;50.858;4.472;2022-08-06T05:12:55;2.42;;;1.40;;
23714;SDS011;12036;50.858;4.472;2022-08-06T05:18:03;4.88;;;1.65;;
23714;SDS011;12036;50.858;4.472;2022-08-06T05:20:37;3.15;;;1.70;;
23714;SDS011;12036;50.858;4.472;2022-08-06T05:23:09;2.70;;;1.50;;
23714;SDS011;12036;50.858;4.472;2022-08-06T05:25:38;4.40;;;2.05;;
23714;SDS011;12036;50.858;4.472;2022-08-06T05:28:05;3.10;;;1.40;;
23714;SDS011;12036;50.858;4.472;2022-08-06T05:30:31;4.20;;;1.55;;
23714;SDS011;12036;50.858;4.472;2022-08-06T05:32:57;3.80;;;1.20;;
23714;SDS011;12036;50.858;4.472;2022-08-06T05:35:25;7.68;;;1.45;;
23714;SDS011;12036;50.858;4.472;2022-08-06T05:37:51;2.45;;;1.25;;
23714;SDS011;12036;50.858;4.472;2022-08-06T05:40:17;3.50;;;1.35;;
23714;SDS011;12036;50.858;4.472;2022-08-06T05:42:42;4.07;;;1.50;;
23714;SDS011;12036;50.858;4.472;2022-08-06T05:45:08;3.35;;;1.10;;
23714;SDS011;12036;50.858;4.472;2022-08-06T05:47:36;5.43;;;1.20;;
23714;SDS011;12036;50.858;4.472;2022-08-06T05:50:05;3.38;;;1.35;;
23714;SDS011;12036;50.858;4.472;2022-08-06T05:52:40;4.50;;;1.50;;
23714;SDS011;12036;50.858;4.472;2022-08-06T05:55:57;3.33;;;1.35;;
23714;SDS011;12036;50.858;4.472;2022-08-06T06:00:36;6.45;;;1.50;;
23714;SDS011;12036;50.858;4.472;2022-08-06T06:03:04;3.38;;;1.30;;
23714;SDS011;12036;50.858;4.472;2022-08-06T06:05:33;3.80;;;1.20;;
23714;SDS011;12036;50.858;4.472;2022-08-06T06:07:59;4.82;;;1.40;;
23714;SDS011;12036;50.858;4.472;2022-08-06T06:10:25;7.20;;;1.60;;
23714;SDS011;12036;50.858;4.472;2022-08-06T06:12:52;3.08;;;1.60;;
23714;SDS011;12036;50.858;4.472;2022-08-06T06:15:19;3.38;;;1.27;;
23714;SDS011;12036;50.858;4.472;2022-08-06T06:25:31;2.60;;;1.25;;
23714;SDS011;12036;50.858;4.472;2022-08-06T06:30:57;7.88;;;1.90;;
23714;SDS011;12036;50.858;4.472;2022-08-06T06:36:25;5.88;;;1.50;;
23714;SDS011;12036;50.858;4.472;2022-08-06T06:39:15;3.25;;;1.20;;
23714;SDS011;12036;50.858;4.472;2022-08-06T06:41:58;4.13;;;1.20;;
23714;SDS011;12036;50.858;4.472;2022-08-06T06:44:35;4.68;;;1.60;;
23714;SDS011;12036;50.858;4.472;2022-08-06T06:47:10;2.22;;;0.98;;
23714;SDS011;12036;50.858;4.472;2022-08-06T06:49:52;4.28;;;1.23;;
23714;SDS011;12036;50.858;4.472;2022-08-06T06:52:37;3.63;;;1.10;;
23714;SDS011;12036;50.858;4.472;2022-08-06T06:58:05;4.07;;;1.13;;
23714;SDS011;12036;50.858;4.472;2022-08-06T07:00:36;4.22;;;1.00;;
23714;SDS011;12036;50.858;4.472;2022-08-06T07:03:03;5.95;;;1.20;;
23714;SDS011;12036;50.858;4.472;2022-08-06T07:05:32;4.82;;;1.10;;
23714;SDS011;12036;50.858;4.472;2022-08-06T07:08:01;5.28;;;1.10;;
23714;SDS011;12036;50.858;4.472;2022-08-06T07:10:29;2.35;;;0.90;;
23714;SDS011;12036;50.858;4.472;2022-08-06T07:12:56;4.60;;;0.85;;
23714;SDS011;12036;50.858;4.472;2022-08-06T07:15:23;4.80;;;1.10;;
23714;SDS011;12036;50.858;4.472;2022-08-06T07:17:50;6.22;;;1.10;;
23714;SDS011;12036;50.858;4.472;2022-08-06T07:20:22;4.00;;;1.00;;
23714;SDS011;12036;50.858;4.472;2022-08-06T07:22:50;6.47;;;1.30;;
23714;SDS011;12036;50.858;4.472;2022-08-06T07:25:19;4.53;;;1.40;;
23714;SDS011;12036;50.858;4.472;2022-08-06T07:27:45;4.22;;;1.20;;
23714;SDS011;12036;50.858;4.472;2022-08-06T07:30:14;8.80;;;1.20;;
23714;SDS011;12036;50.858;4.472;2022-08-06T07:32:42;7.53;;;1.60;;
23714;SDS011;12036;50.858;4.472;2022-08-06T07:35:09;7.85;;;1.20;;
23714;SDS011;12036;50.858;4.472;2022-08-06T07:37:35;3.47;;;0.70;;
23714;SDS011;12036;50.858;4.472;2022-08-06T07:40:06;5.43;;;0.90;;
23714;SDS011;12036;50.858;4.472;2022-08-06T07:42:34;3.53;;;0.70;;
23714;SDS011;12036;50.858;4.472;2022-08-06T07:45:02;2.25;;;0.68;;
23714;SDS011;12036;50.858;4.472;2022-08-06T07:47:32;4.35;;;0.63;;
23714;SDS011;12036;50.858;4.472;2022-08-06T07:50:01;4.53;;;0.82;;
23714;SDS011;12036;50.858;4.472;2022-08-06T07:52:27;2.47;;;0.65;;
23714;SDS011;12036;50.858;4.472;2022-08-06T07:54:54;5.55;;;0.80;;
23714;SDS011;12036;50.858;4.472;2022-08-06T07:57:21;4.57;;;0.88;;
23714;SDS011;12036;50.858;4.472;2022-08-06T07:59:48;6.13;;;0.80;;
23714;SDS011;12036;50.858;4.472;2022-08-06T08:02:15;3.22;;;0.63;;
23714;SDS011;12036;50.858;4.472;2022-08-06T08:04:42;3.25;;;1.10;;
23714;SDS011;12036;50.858;4.472;2022-08-06T08:07:26;3.80;;;0.90;;
23714;SDS011;12036;50.858;4.472;2022-08-06T08:09:53;4.78;;;0.77;;
23714;SDS011;12036;50.858;4.472;2022-08-06T08:12:19;2.88;;;0.88;;
23714;SDS011;12036;50.858;4.472;2022-08-06T08:14:47;3.15;;;0.73;;
23714;SDS011;12036;50.858;4.472;2022-08-06T08:17:14;4.80;;;0.70;;
23714;SDS011;12036;50.858;4.472;2022-08-06T08:19:40;1.40;;;0.68;;
23714;SDS011;12036;50.858;4.472;2022-08-06T08:22:08;2.90;;;0.73;;
23714;SDS011;12036;50.858;4.472;2022-08-06T08:24:43;5.93;;;0.70;;
23714;SDS011;12036;50.858;4.472;2022-08-06T08:27:10;4.07;;;0.60;;
23714;SDS011;12036;50.858;4.472;2022-08-06T08:29:36;3.45;;;0.70;;
23714;SDS011;12036;50.858;4.472;2022-08-06T08:32:03;4.72;;;0.63;;
23714;SDS011;12036;50.858;4.472;2022-08-06T08:34:29;2.35;;;0.45;;
23714;SDS011;12036;50.858;4.472;2022-08-06T08:36:55;1.63;;;0.35;;
23714;SDS011;12036;50.858;4.472;2022-08-06T08:39:21;3.10;;;0.50;;
23714;SDS011;12036;50.858;4.472;2022-08-06T08:41:51;3.67;;;0.90;;
23714;SDS011;12036;50.858;4.472;2022-08-06T08:44:24;1.98;;;0.60;;
23714;SDS011;12036;50.858;4.472;2022-08-06T08:46:53;3.25;;;0.47;;
23714;SDS011;12036;50.858;4.472;2022-08-06T08:49:32;4.70;;;0.60;;
23714;SDS011;12036;50.858;4.472;2022-08-06T08:52:06;2.97;;;0.50;;
23714;SDS011;12036;50.858;4.472;2022-08-06T08:54:34;3.05;;;0.50;;
23714;SDS011;12036;50.858;4.472;2022-08-06T08:57:03;2.08;;;0.60;;
23714;SDS011;12036;50.858;4.472;2022-08-06T08:59:30;2.50;;;0.63;;
23714;SDS011;12036;50.858;4.472;2022-08-06T09:01:57;4.20;;;0.80;;
23714;SDS011;12036;50.858;4.472;2022-08-06T09:04:24;1.88;;;0.40;;
23714;SDS011;12036;50.858;4.472;2022-08-06T09:06:50;2.20;;;0.50;;
23714;SDS011;12036;50.858;4.472;2022-08-06T09:09:16;1.60;;;0.45;;
23714;SDS011;12036;50.858;4.472;2022-08-06T09:11:43;6.72;;;0.70;;
23714;SDS011;12036;50.858;4.472;2022-08-06T09:14:08;1.10;;;0.32;;
23714;SDS011;12036;50.858;4.472;2022-08-06T09:16:35;1.52;;;0.40;;
23714;SDS011;12036;50.858;4.472;2022-08-06T09:19:02;4.18;;;0.50;;
23714;SDS011;12036;50.858;4.472;2022-08-06T09:21:29;1.25;;;0.40;;
23714;SDS011;12036;50.858;4.472;2022-08-06T09:23:55;4.90;;;0.60;;
23714;SDS011;12036;50.858;4.472;2022-08-06T09:26:21;3.70;;;0.73;;
23714;SDS011;12036;50.858;4.472;2022-08-06T09:28:47;1.92;;;0.40;;
23714;SDS011;12036;50.858;4.472;2022-08-06T09:31:15;2.63;;;0.63;;
23714;SDS011;12036;50.858;4.472;2022-08-06T09:33:43;4.47;;;0.70;;
23714;SDS011;12036;50.858;4.472;2022-08-06T09:36:17;1.42;;;0.43;;
23714;SDS011;12036;50.858;4.472;2022-08-06T09:38:46;2.15;;;0.60;;
23714;SDS011;12036;50.858;4.472;2022-08-06T09:41:22;2.90;;;0.40;;
23714;SDS011;12036;50.858;4.472;2022-08-06T09:43:50;2.25;;;0.60;;
23714;SDS011;12036;50.858;4.472;2022-08-06T09:46:19;3.00;;;0.60;;
23714;SDS011;12036;50.858;4.472;2022-08-06T09:49:13;2.45;;;0.55;;
23714;SDS011;12036;50.858;4.472;2022-08-06T09:51:40;3.80;;;0.60;;
23714;SDS011;12036;50.858;4.472;2022-08-06T09:54:10;3.13;;;0.45;;
23714;SDS011;12036;50.858;4.472;2022-08-06T09:56:45;2.28;;;0.60;;
23714;SDS011;12036;50.858;4.472;2022-08-06T09:59:20;2.90;;;0.50;;
23714;SDS011;12036;50.858;4.472;2022-08-06T10:01:46;2.05;;;0.80;;
23714;SDS011;12036;50.858;4.472;2022-08-06T10:04:13;2.03;;;0.30;;
23714;SDS011;12036;50.858;4.472;2022-08-06T10:06:57;1.98;;;0.35;;
23714;SDS011;12036;50.858;4.472;2022-08-06T10:09:26;2.50;;;0.32;;
23714;SDS011;12036;50.858;4.472;2022-08-06T10:11:52;2.13;;;0.40;;
23714;SDS011;12036;50.858;4.472;2022-08-06T10:14:23;0.57;;;0.28;;
23714;SDS011;12036;50.858;4.472;2022-08-06T10:17:11;3.78;;;0.40;;
23714;SDS011;12036;50.858;4.472;2022-08-06T10:19:43;2.40;;;0.60;;
23714;SDS011;12036;50.858;4.472;2022-08-06T10:22:12;1.27;;;0.30;;
23714;SDS011;12036;50.858;4.472;2022-08-06T10:24:42;1.13;;;0.35;;
23714;SDS011;12036;50.858;4.472;2022-08-06T10:27:11;1.35;;;0.38;;
23714;SDS011;12036;50.858;4.472;2022-08-06T10:29:42;2.08;;;0.45;;
23714;SDS011;12036;50.858;4.472;2022-08-06T10:32:13;2.95;;;0.60;;
23714;SDS011;12036;50.858;4.472;2022-08-06T10:34:42;5.28;;;0.45;;
23714;SDS011;12036;50.858;4.472;2022-08-06T10:37:09;1.92;;;0.30;;
23714;SDS011;12036;50.858;4.472;2022-08-06T10:39:39;7.78;;;0.52;;
23714;SDS011;12036;50.858;4.472;2022-08-06T10:42:10;2.65;;;0.50;;
23714;SDS011;12036;50.858;4.472;2022-08-06T10:44:37;0.57;;;0.32;;
23714;SDS011;12036;50.858;4.472;2022-08-06T10:47:04;1.85;;;0.40;;
23714;SDS011;12036;50.858;4.472;2022-08-06T10:49:32;2.53;;;0.52;;
23714;SDS011;12036;50.858;4.472;2022-08-06T10:51:58;1.50;;;0.25;;
23714;SDS011;12036;50.858;4.472;2022-08-06T10:54:24;1.45;;;0.30;;
23714;SDS011;12036;50.858;4.472;2022-08-06T10:56:51;2.25;;;0.45;;
23714;SDS011;12036;50.858;4.472;2022-08-06T10:59:21;0.57;;;0.10;;
23714;SDS011;12036;50.858;4.472;2022-08-06T11:15:18;1.70;;;0.35;;
23714;SDS011;12036;50.858;4.472;2022-08-06T11:17:48;3.72;;;0.35;;
23714;SDS011;12036;50.858;4.472;2022-08-06T11:22:57;0.17;;;0.15;;
23714;SDS011;12036;50.858;4.472;2022-08-06T11:28:05;1.77;;;0.38;;
23714;SDS011;12036;50.858;4.472;2022-08-06T11:30:51;0.98;;;0.20;;
23714;SDS011;12036;50.858;4.472;2022-08-06T11:33:19;3.42;;;0.28;;
23714;SDS011;12036;50.858;4.472;2022-08-06T11:36:06;3.80;;;0.40;;
23714;SDS011;12036;50.858;4.472;2022-08-06T11:41:16;1.35;;;0.47;;
23714;SDS011;12036;50.858;4.472;2022-08-06T11:46:27;2.28;;;0.50;;
23714;SDS011;12036;50.858;4.472;2022-08-06T11:51:45;1.67;;;0.40;;
23714;SDS011;12036;50.858;4.472;2022-08-06T11:54:19;3.78;;;0.52;;
23714;SDS011;12036;50.858;4.472;2022-08-06T11:59:24;1.33;;;0.40;;
23714;SDS011;12036;50.858;4.472;2022-08-06T12:01:50;1.55;;;0.30;;
23714;SDS011;12036;50.858;4.472;2022-08-06T12:10:07;2.30;;;0.40;;
23714;SDS011;12036;50.858;4.472;2022-08-06T12:23:03;1.38;;;0.30;;
23714;SDS011;12036;50.858;4.472;2022-08-06T12:25:31;0.70;;;0.28;;
23714;SDS011;12036;50.858;4.472;2022-08-06T12:27:58;1.63;;;0.30;;
23714;SDS011;12036;50.858;4.472;2022-08-06T12:30:24;3.72;;;0.60;;
23714;SDS011;12036;50.858;4.472;2022-08-06T12:32:58;2.22;;;0.50;;
23714;SDS011;12036;50.858;4.472;2022-08-06T12:35:25;3.60;;;0.70;;
23714;SDS011;12036;50.858;4.472;2022-08-06T12:37:51;0.88;;;0.40;;
23714;SDS011;12036;50.858;4.472;2022-08-06T12:40:18;2.13;;;0.50;;
23714;SDS011;12036;50.858;4.472;2022-08-06T12:45:32;1.73;;;0.57;;
23714;SDS011;12036;50.858;4.472;2022-08-06T12:48:05;1.52;;;0.55;;
23714;SDS011;12036;50.858;4.472;2022-08-06T12:50:33;2.58;;;0.60;;
23714;SDS011;12036;50.858;4.472;2022-08-06T12:53:11;2.05;;;0.50;;
23714;SDS011;12036;50.858;4.472;2022-08-06T12:55:48;1.88;;;0.60;;
23714;SDS011;12036;50.858;4.472;2022-08-06T12:58:53;2.85;;;0.70;;
23714;SDS011;12036;50.858;4.472;2022-08-06T13:01:13;1.10;;;0.55;;
23714;SDS011;12036;50.858;4.472;2022-08-06T13:03:41;3.00;;;0.70;;
23714;SDS011;12036;50.858;4.472;2022-08-06T13:06:13;1.52;;;0.60;;
23714;SDS011;12036;50.858;4.472;2022-08-06T13:08:41;1.60;;;0.60;;
23714;SDS011;12036;50.858;4.472;2022-08-06T13:11:10;1.40;;;0.70;;
23714;SDS011;12036;50.858;4.472;2022-08-06T13:13:40;2.95;;;0.80;;
23714;SDS011;12036;50.858;4.472;2022-08-06T13:16:11;3.10;;;0.93;;
23714;SDS011;12036;50.858;4.472;2022-08-06T13:18:38;4.25;;;0.80;;
23714;SDS011;12036;50.858;4.472;2022-08-06T13:21:17;1.42;;;0.60;;
23714;SDS011;12036;50.858;4.472;2022-08-06T13:23:50;0.93;;;0.70;;
23714;SDS011;12036;50.858;4.472;2022-08-06T13:31:32;2.95;;;1.08;;
23714;SDS011;12036;50.858;4.472;2022-08-06T13:34:03;2.80;;;0.70;;
23714;SDS011;12036;50.858;4.472;2022-08-06T13:36:30;4.35;;;1.00;;
23714;SDS011;12036;50.858;4.472;2022-08-06T13:38:58;3.63;;;0.90;;
23714;SDS011;12036;50.858;4.472;2022-08-06T13:41:28;1.30;;;0.70;;
23714;SDS011;12036;50.858;4.472;2022-08-06T13:43:57;3.08;;;0.80;;
23714;SDS011;12036;50.858;4.472;2022-08-06T13:46:24;4.13;;;1.20;;
23714;SDS011;12036;50.858;4.472;2022-08-06T13:48:52;2.13;;;1.25;;
23714;SDS011;12036;50.858;4.472;2022-08-06T13:51:21;1.88;;;1.10;;
23714;SDS011;12036;50.858;4.472;2022-08-06T13:53:48;2.55;;;1.10;;
23714;SDS011;12036;50.858;4.472;2022-08-06T13:56:14;1.23;;;0.68;;
23714;SDS011;12036;50.858;4.472;2022-08-06T13:58:41;3.95;;;0.80;;
23714;SDS011;12036;50.858;4.472;2022-08-06T14:01:08;2.85;;;0.80;;
23714;SDS011;12036;50.858;4.472;2022-08-06T14:03:37;3.17;;;0.70;;
23714;SDS011;12036;50.858;4.472;2022-08-06T14:06:03;1.88;;;0.73;;
23714;SDS011;12036;50.858;4.472;2022-08-06T14:08:29;1.58;;;0.75;;
23714;SDS011;12036;50.858;4.472;2022-08-06T14:10:55;1.65;;;0.80;;
23714;SDS011;12036;50.858;4.472;2022-08-06T14:13:21;3.55;;;0.80;;
23714;SDS011;12036;50.858;4.472;2022-08-06T14:15:47;4.63;;;0.95;;
23714;SDS011;12036;50.858;4.472;2022-08-06T14:18:15;2.65;;;1.00;;
23714;SDS011;12036;50.858;4.472;2022-08-06T14:20:42;2.25;;;0.95;;
23714;SDS011;12036;50.858;4.472;2022-08-06T14:23:08;2.75;;;0.80;;
23714;SDS011;12036;50.858;4.472;2022-08-06T14:25:35;1.35;;;0.75;;
23714;SDS011;12036;50.858;4.472;2022-08-06T14:28:02;3.28;;;0.90;;
23714;SDS011;12036;50.858;4.472;2022-08-06T14:30:28;1.10;;;1.00;;
23714;SDS011;12036;50.858;4.472;2022-08-06T14:32:54;2.20;;;0.80;;
23714;SDS011;12036;50.858;4.472;2022-08-06T14:35:20;1.38;;;0.80;;
23714;SDS011;12036;50.858;4.472;2022-08-06T14:37:46;2.00;;;0.90;;
23714;SDS011;12036;50.858;4.472;2022-08-06T14:40:13;2.58;;;1.10;;
23714;SDS011;12036;50.858;4.472;2022-08-06T14:42:39;1.38;;;1.00;;
23714;SDS011;12036;50.858;4.472;2022-08-06T14:45:25;2.20;;;0.73;;
23714;SDS011;12036;50.858;4.472;2022-08-06T14:47:51;2.80;;;0.65;;
23714;SDS011;12036;50.858;4.472;2022-08-06T14:50:17;3.85;;;1.00;;
23714;SDS011;12036;50.858;4.472;2022-08-06T14:52:44;2.45;;;1.05;;
23714;SDS011;12036;50.858;4.472;2022-08-06T14:55:10;3.92;;;1.33;;
23714;SDS011;12036;50.858;4.472;2022-08-06T14:57:36;1.27;;;0.90;;
23714;SDS011;12036;50.858;4.472;2022-08-06T15:00:07;3.45;;;0.90;;
23714;SDS011;12036;50.858;4.472;2022-08-06T15:02:34;3.75;;;0.70;;
23714;SDS011;12036;50.858;4.472;2022-08-06T15:04:59;5.25;;;0.80;;
23714;SDS011;12036;50.858;4.472;2022-08-06T15:07:25;2.50;;;0.75;;
23714;SDS011;12036;50.858;4.472;2022-08-06T15:09:51;1.08;;;0.60;;
23714;SDS011;12036;50.858;4.472;2022-08-06T15:12:17;3.03;;;0.68;;
23714;SDS011;12036;50.858;4.472;2022-08-06T15:14:43;2.47;;;0.80;;
23714;SDS011;12036;50.858;4.472;2022-08-06T15:17:09;1.08;;;0.60;;
23714;SDS011;12036;50.858;4.472;2022-08-06T15:19:35;1.23;;;0.85;;
23714;SDS011;12036;50.858;4.472;2022-08-06T15:22:01;1.38;;;0.70;;
23714;SDS011;12036;50.858;4.472;2022-08-06T15:24:26;3.58;;;0.73;;
23714;SDS011;12036;50.858;4.472;2022-08-06T15:26:53;0.98;;;0.73;;
23714;SDS011;12036;50.858;4.472;2022-08-06T15:29:20;1.15;;;0.70;;
23714;SDS011;12036;50.858;4.472;2022-08-06T15:31:46;1.23;;;0.90;;
23714;SDS011;12036;50.858;4.472;2022-08-06T15:34:12;2.63;;;0.98;;
23714;SDS011;12036;50.858;4.472;2022-08-06T15:36:38;2.33;;;0.98;;
23714;SDS011;12036;50.858;4.472;2022-08-06T15:39:04;2.25;;;1.02;;
23714;SDS011;12036;50.858;4.472;2022-08-06T15:41:30;2.58;;;1.00;;
23714;SDS011;12036;50.858;4.472;2022-08-06T15:43:56;1.98;;;1.30;;
23714;SDS011;12036;50.858;4.472;2022-08-06T15:46:22;1.92;;;1.20;;
23714;SDS011;12036;50.858;4.472;2022-08-06T15:48:48;1.88;;;1.35;;
23714;SDS011;12036;50.858;4.472;2022-08-06T15:51:14;3.30;;;1.10;;
23714;SDS011;12036;50.858;4.472;2022-08-06T15:53:40;2.92;;;1.00;;
23714;SDS011;12036;50.858;4.472;2022-08-06T15:56:06;0.77;;;0.77;;
23714;SDS011;12036;50.858;4.472;2022-08-06T15:58:31;1.70;;;1.15;;
23714;SDS011;12036;50.858;4.472;2022-08-06T16:00:57;1.08;;;0.98;;
23714;SDS011;12036;50.858;4.472;2022-08-06T16:03:23;1.42;;;0.90;;
23714;SDS011;12036;50.858;4.472;2022-08-06T16:05:49;3.08;;;0.93;;
23714;SDS011;12036;50.858;4.472;2022-08-06T16:08:15;3.88;;;1.42;;
23714;SDS011;12036;50.858;4.472;2022-08-06T16:10:45;1.48;;;1.10;;
23714;SDS011;12036;50.858;4.472;2022-08-06T16:13:12;2.40;;;1.05;;
23714;SDS011;12036;50.858;4.472;2022-08-06T16:15:47;1.52;;;0.70;;
23714;SDS011;12036;50.858;4.472;2022-08-06T16:18:17;1.70;;;1.00;;
23714;SDS011;12036;50.858;4.472;2022-08-06T16:20:44;1.75;;;0.90;;
23714;SDS011;12036;50.858;4.472;2022-08-06T16:23:11;1.27;;;0.90;;
23714;SDS011;12036;50.858;4.472;2022-08-06T16:25:38;4.35;;;1.00;;